Mc Cracken, Kansas
Current Conditions -  °F | °C
As of 8:15 PM on Saturday 25 Oct 2014 (Local Time) from KHYS Reporting Station
Clear Clear  
Wind Chill: 66°   Ceiling: Unl
Heat Index: 66°   Visibility: 10mi
Dew Point: 50°   Wind: 8mph
Humidity: 56%   Direction: 150°SSE
Pressure: 29.93"   Gusts: NA
Location:  38.6313°N, 99.4817°W
Report Text: KHYS 260115Z AUTO 15007KT 10SM CLR 19/10 A2993 RMK AO1
Loading
Personal Weather Stations






























Interactive Weather Map
Tropical Storm Tracking
New forecast layout! Learn more

10-Day Weather Forecast

Advertisements
Track Severe Weather on mobile